Time;durP1;ratioP1;P1;durP2;ratioP2;P2;SDS_P1;SDS_P2;PMS_P1;PMS_P2;Temp;Humidity;BMP_temperature;BMP_pressure;BME280_temperature;BME280_humidity;BME280_pressure;Samples;Min_cycle;Max_cycle;Signal;HPM_P1;HPM_P2
2023/12/19 00:07:29;;;;;;;18.42;13.68;;;;;;;20.61;52.70;101623.53;41720825;28;20567;-73
2023/12/19 00:27:29;;;;;;;16.17;13.52;;;;;;;20.59;52.59;101638.56;41729817;28;20407;-73
2023/12/19 00:47:30;;;;;;;17.58;13.15;;;;;;;20.56;52.39;101659.78;41721565;28;20046;-72
2023/12/19 01:07:30;;;;;;;18.00;13.18;;;;;;;20.52;52.35;101650.34;41726611;28;20057;-73
2023/12/19 01:27:30;;;;;;;16.02;12.27;;;;;;;20.47;52.32;101640.09;41724556;28;20081;-73
2023/12/19 01:47:31;;;;;;;15.45;12.50;;;;;;;20.47;52.42;101592.75;41714575;28;20049;-73
2023/12/19 02:07:31;;;;;;;15.48;12.15;;;;;;;20.42;52.15;101579.84;41710782;28;20071;-74
2023/12/19 02:27:31;;;;;;;15.73;12.45;;;;;;;20.41;51.94;101574.63;41717574;28;20176;-74
2023/12/19 02:47:32;;;;;;;15.93;12.18;;;;;;;20.30;52.20;101568.19;41705285;28;20510;-73
2023/12/19 03:07:33;;;;;;;16.00;12.30;;;;;;;20.30;51.88;101559.47;41708858;28;20068;-73
2023/12/19 03:27:33;;;;;;;17.00;12.52;;;;;;;20.33;52.23;101559.28;41715913;28;20450;-73
2023/12/19 03:47:36;;;;;;;17.42;12.38;;;;;;;20.34;51.89;101536.47;41752953;28;20059;-73
2023/12/19 04:07:36;;;;;;;15.95;11.70;;;;;;;20.34;51.61;101534.69;41753604;28;20056;-73
2023/12/19 04:27:37;;;;;;;13.80;10.68;;;;;;;20.33;51.76;101547.94;41756699;28;20092;-73
2023/12/19 04:47:37;;;;;;;16.35;10.85;;;;;;;20.34;51.61;101583.81;41739642;28;20053;-73
2023/12/19 05:07:38;;;;;;;13.60;10.68;;;;;;;20.34;51.25;101568.03;41745211;28;20033;-73
2023/12/19 05:27:43;;;;;;;17.83;10.65;;;;;;;21.15;49.84;101530.97;41754083;28;20041;-75
2023/12/19 05:47:43;;;;;;;15.10;10.68;;;;;;;21.36;50.52;101513.06;41748410;28;20061;-74
2023/12/19 06:07:44;;;;;;;26.42;12.85;;;;;;;21.09;50.20;101513.78;41722788;28;20042;-74
2023/12/19 06:27:45;;;;;;;21.52;13.30;;;;;;;21.26;46.24;101482.94;41721448;28;20068;-76
2023/12/19 06:47:46;;;;;;;19.02;11.77;;;;;;;21.21;47.03;101500.81;41708730;28;20044;-74
2023/12/19 07:07:51;;;;;;;23.35;11.77;;;;;;;21.44;47.93;101505.50;41723014;28;20060;-74
2023/12/19 07:27:52;;;;;;;22.00;12.85;;;;;;;21.22;47.17;101516.50;41724385;28;20558;-74
2023/12/19 07:47:52;;;;;;;21.42;12.52;;;;;;;21.21;46.80;101533.25;41716655;28;22971;-73
2023/12/19 08:07:53;;;;;;;19.75;11.68;;;;;;;21.24;47.16;101533.06;41688399;28;20048;-73
2023/12/19 08:27:53;;;;;;;15.77;11.10;;;;;;;21.24;46.69;101530.44;41686549;28;20045;-73
2023/12/19 08:47:54;;;;;;;16.10;10.90;;;;;;;21.20;46.79;101530.72;41707226;28;20050;-73
2023/12/19 09:07:54;;;;;;;14.57;10.00;;;;;;;21.13;46.49;101500.41;41701474;28;20042;-76
2023/12/19 09:27:55;;;;;;;12.88;9.88;;;;;;;21.12;45.99;101462.69;41691779;28;20044;-75
2023/12/19 09:48:01;;;;;;;17.75;10.80;;;;;;;21.20;46.10;101414.81;41699797;28;20382;-76
2023/12/19 10:08:03;;;;;;;12.50;9.52;;;;;;;21.27;46.60;101366.91;41717484;28;20092;-77
2023/12/19 10:28:10;;;;;;;15.02;10.10;;;;;;;21.26;46.08;101343.31;41714673;28;20041;-74
2023/12/19 10:48:11;;;;;;;12.35;9.32;;;;;;;21.18;46.32;101327.13;41717950;28;20061;-72
2023/12/19 11:08:22;;;;;;;15.98;9.85;;;;;;;21.28;45.92;101286.13;41680624;28;20744;-73
2023/12/19 11:28:24;;;;;;;12.07;9.25;;;;;;;21.50;45.47;101250.50;41689066;28;20041;-71
2023/12/19 11:48:44;;;;;;;12.88;9.48;;;;;;;21.42;45.77;101246.56;41677408;28;20045;-71
2023/12/19 12:08:53;;;;;;;13.25;10.15;;;;;;;21.63;45.45;101227.69;41717736;28;20041;-71
2023/12/19 12:28:54;;;;;;;14.93;10.63;;;;;;;21.63;45.96;101190.78;41714719;28;20381;-71
2023/12/19 12:48:54;;;;;;;13.07;9.73;;;;;;;21.57;46.03;101156.94;41716942;28;20056;-72
2023/12/19 13:08:55;;;;;;;12.73;10.05;;;;;;;21.68;45.57;101146.53;41712367;28;20060;-72
2023/12/19 13:28:56;;;;;;;16.90;10.68;;;;;;;21.56;46.26;101127.09;41693092;28;20077;-70
2023/12/19 13:48:59;;;;;;;23.92;10.77;;;;;;;21.64;46.16;101120.47;41672197;28;20084;-72
2023/12/19 14:08:59;;;;;;;15.52;11.40;;;;;;;21.74;45.75;101101.28;41683084;28;20056;-72
2023/12/19 14:29:00;;;;;;;18.23;11.40;;;;;;;21.79;45.82;101079.03;41695159;28;20411;-70
2023/12/19 14:49:00;;;;;;;15.27;11.48;;;;;;;21.62;45.51;101062.59;41656199;28;20048;-68
2023/12/19 15:09:03;;;;;;;13.90;10.40;;;;;;;21.46;46.50;101025.88;41663519;28;20570;-69
2023/12/19 15:29:04;;;;;;;15.95;10.55;;;;;;;21.38;46.90;100989.50;41662619;28;20043;-71
2023/12/19 15:49:05;;;;;;;16.42;10.30;;;;;;;21.40;48.28;100970.97;41704546;28;20052;-73
2023/12/19 16:09:05;;;;;;;15.60;10.32;;;;;;;21.33;48.38;100960.00;41709810;28;20132;-74
2023/12/19 16:29:09;;;;;;;13.13;10.18;;;;;;;21.11;47.99;100958.84;41734201;28;20048;-71
2023/12/19 16:49:09;;;;;;;21.65;11.15;;;;;;;21.05;47.67;100954.00;41690345;28;20053;-71
2023/12/19 17:09:11;;;;;;;14.52;10.18;;;;;;;21.25;48.66;100936.84;41702393;28;20054;-72
2023/12/19 17:29:11;;;;;;;17.73;11.27;;;;;;;21.32;49.80;100944.31;41695395;28;20060;-72
2023/12/19 17:49:12;;;;;;;14.75;11.05;;;;;;;21.38;49.78;100944.72;41686379;28;20054;-74
2023/12/19 18:09:12;;;;;;;19.63;11.75;;;;;;;21.41;50.77;100883.94;41707400;28;20057;-74
2023/12/19 18:29:15;;;;;;;19.13;11.90;;;;;;;21.47;51.33;100866.84;41698396;28;20041;-72
2023/12/19 18:49:17;;;;;;;20.80;13.40;;;;;;;21.63;53.70;100840.28;41715450;28;20049;-73
2023/12/19 19:09:18;;;;;;;27.63;13.90;;;;;;;21.43;56.87;100829.34;41691675;28;20052;-74
2023/12/19 19:29:20;;;;;;;20.05;12.57;;;;;;;21.32;55.04;100825.78;41678195;28;20052;-74
2023/12/19 19:49:23;;;;;;;23.08;13.30;;;;;;;20.91;51.83;100804.88;41682189;28;20496;-72
2023/12/19 20:09:24;;;;;;;20.55;12.38;;;;;;;20.98;52.58;100776.34;41724657;28;20140;-72
2023/12/19 20:29:26;;;;;;;19.02;11.85;;;;;;;20.87;52.92;100755.19;41738230;28;20043;-74
2023/12/19 20:49:27;;;;;;;20.98;10.80;;;;;;;20.88;52.33;100741.91;41736489;28;20057;-74
2023/12/19 21:09:29;;;;;;;16.05;10.55;;;;;;;20.94;52.94;100738.03;41705735;28;20424;-74
2023/12/19 21:29:31;;;;;;;13.40;9.52;;;;;;;20.83;53.12;100706.38;41729698;28;20037;-74
2023/12/19 21:49:36;;;;;;;12.52;9.52;;;;;;;20.77;53.34;100670.78;41733068;28;20050;-74
2023/12/19 22:09:37;;;;;;;13.30;8.52;;;;;;;20.73;53.53;100635.13;41711666;28;20448;-75
2023/12/19 22:29:44;;;;;;;12.07;8.95;;;;;;;20.62;53.68;100610.38;41686898;28;20037;-74
2023/12/19 22:49:47;;;;;;;11.48;9.10;;;;;;;20.58;53.71;100560.72;41684998;28;20122;-77
2023/12/19 23:09:47;;;;;;;10.57;8.40;;;;;;;20.52;53.88;100546.22;41705935;28;20059;-75
2023/12/19 23:29:48;;;;;;;10.77;8.27;;;;;;;20.52;53.15;100522.56;41721299;28;20049;-75
2023/12/19 23:49:49;;;;;;;11.07;8.55;;;;;;;20.48;53.35;100519.31;41746145;28;20040;-77
